sensor_id;sensor_type;location;lat;lon;timestamp;temperature;humidity
5196;DHT22;2617;51.006;12.436;2023-08-20T00:02:30;24.70;99.90
5196;DHT22;2617;51.006;12.436;2023-08-20T00:07:33;24.70;99.90
5196;DHT22;2617;51.006;12.436;2023-08-20T00:12:36;24.60;99.90
5196;DHT22;2617;51.006;12.436;2023-08-20T00:17:39;24.60;99.90
5196;DHT22;2617;51.006;12.436;2023-08-20T00:22:41;24.60;99.90
5196;DHT22;2617;51.006;12.436;2023-08-20T00:27:44;24.50;99.90
5196;DHT22;2617;51.006;12.436;2023-08-20T00:32:46;24.50;99.90
5196;DHT22;2617;51.006;12.436;2023-08-20T00:37:48;24.40;99.90
5196;DHT22;2617;51.006;12.436;2023-08-20T00:42:51;24.40;99.90
5196;DHT22;2617;51.006;12.436;2023-08-20T00:47:54;24.30;99.90
5196;DHT22;2617;51.006;12.436;2023-08-20T00:52:56;24.30;99.90
5196;DHT22;2617;51.006;12.436;2023-08-20T00:57:59;24.30;99.90
5196;DHT22;2617;51.006;12.436;2023-08-20T01:03:01;24.30;99.90
5196;DHT22;2617;51.006;12.436;2023-08-20T01:08:12;24.20;99.90
5196;DHT22;2617;51.006;12.436;2023-08-20T01:13:15;24.20;99.90
5196;DHT22;2617;51.006;12.436;2023-08-20T01:18:17;24.10;99.90
5196;DHT22;2617;51.006;12.436;2023-08-20T01:23:31;24.00;99.90
5196;DHT22;2617;51.006;12.436;2023-08-20T01:28:45;24.00;99.90
5196;DHT22;2617;51.006;12.436;2023-08-20T01:33:47;24.00;99.90
5196;DHT22;2617;51.006;12.436;2023-08-20T01:38:49;23.90;99.90
5196;DHT22;2617;51.006;12.436;2023-08-20T01:43:52;23.80;99.90
5196;DHT22;2617;51.006;12.436;2023-08-20T01:48:55;23.70;99.90
5196;DHT22;2617;51.006;12.436;2023-08-20T01:53:57;23.60;99.90
5196;DHT22;2617;51.006;12.436;2023-08-20T01:59:00;23.60;99.90
5196;DHT22;2617;51.006;12.436;2023-08-20T02:04:02;23.50;99.90
5196;DHT22;2617;51.006;12.436;2023-08-20T02:09:06;23.30;99.90
5196;DHT22;2617;51.006;12.436;2023-08-20T02:14:09;23.20;99.90
5196;DHT22;2617;51.006;12.436;2023-08-20T02:19:11;23.20;99.90
5196;DHT22;2617;51.006;12.436;2023-08-20T02:24:14;23.10;99.90
5196;DHT22;2617;51.006;12.436;2023-08-20T02:29:16;23.00;99.90
5196;DHT22;2617;51.006;12.436;2023-08-20T02:34:19;22.80;99.90
5196;DHT22;2617;51.006;12.436;2023-08-20T02:39:22;22.80;99.90
5196;DHT22;2617;51.006;12.436;2023-08-20T02:44:25;22.80;99.90
5196;DHT22;2617;51.006;12.436;2023-08-20T02:49:27;22.70;99.90
5196;DHT22;2617;51.006;12.436;2023-08-20T02:54:30;22.70;99.90
5196;DHT22;2617;51.006;12.436;2023-08-20T02:59:32;22.70;99.90
5196;DHT22;2617;51.006;12.436;2023-08-20T03:04:34;22.60;99.90
5196;DHT22;2617;51.006;12.436;2023-08-20T03:09:37;22.50;99.90
5196;DHT22;2617;51.006;12.436;2023-08-20T03:14:39;22.50;99.90
5196;DHT22;2617;51.006;12.436;2023-08-20T03:19:53;22.40;99.90
5196;DHT22;2617;51.006;12.436;2023-08-20T03:24:59;22.30;99.90
5196;DHT22;2617;51.006;12.436;2023-08-20T03:30:02;22.30;99.90
5196;DHT22;2617;51.006;12.436;2023-08-20T03:35:05;22.20;99.90
5196;DHT22;2617;51.006;12.436;2023-08-20T03:40:08;22.20;99.90
5196;DHT22;2617;51.006;12.436;2023-08-20T03:45:10;22.20;99.90
5196;DHT22;2617;51.006;12.436;2023-08-20T03:50:13;22.20;99.90
5196;DHT22;2617;51.006;12.436;2023-08-20T03:55:15;22.10;99.90
5196;DHT22;2617;51.006;12.436;2023-08-20T04:00:18;22.10;99.90
5196;DHT22;2617;51.006;12.436;2023-08-20T04:05:20;22.10;99.90
5196;DHT22;2617;51.006;12.436;2023-08-20T04:10:23;22.00;99.90
5196;DHT22;2617;51.006;12.436;2023-08-20T04:15:26;22.00;99.90
5196;DHT22;2617;51.006;12.436;2023-08-20T04:20:28;22.00;99.90
5196;DHT22;2617;51.006;12.436;2023-08-20T04:25:30;21.90;99.90
5196;DHT22;2617;51.006;12.436;2023-08-20T04:30:34;21.90;99.90
5196;DHT22;2617;51.006;12.436;2023-08-20T04:35:36;21.80;99.90
5196;DHT22;2617;51.006;12.436;2023-08-20T04:40:39;21.80;99.90
5196;DHT22;2617;51.006;12.436;2023-08-20T04:45:41;21.70;99.90
5196;DHT22;2617;51.006;12.436;2023-08-20T04:50:44;21.70;99.90
5196;DHT22;2617;51.006;12.436;2023-08-20T04:55:46;21.70;99.90
5196;DHT22;2617;51.006;12.436;2023-08-20T05:00:49;21.70;99.90
5196;DHT22;2617;51.006;12.436;2023-08-20T05:05:51;21.70;99.90
5196;DHT22;2617;51.006;12.436;2023-08-20T05:10:54;21.70;99.90
5196;DHT22;2617;51.006;12.436;2023-08-20T05:15:56;21.80;99.90
5196;DHT22;2617;51.006;12.436;2023-08-20T05:21:00;21.90;99.90
5196;DHT22;2617;51.006;12.436;2023-08-20T05:26:02;21.90;99.90
5196;DHT22;2617;51.006;12.436;2023-08-20T05:31:04;22.10;99.90
5196;DHT22;2617;51.006;12.436;2023-08-20T05:36:07;22.20;99.90
5196;DHT22;2617;51.006;12.436;2023-08-20T05:41:09;22.30;99.90
5196;DHT22;2617;51.006;12.436;2023-08-20T05:46:12;22.50;99.90
5196;DHT22;2617;51.006;12.436;2023-08-20T05:51:15;22.60;99.90
5196;DHT22;2617;51.006;12.436;2023-08-20T05:56:17;22.60;99.90
5196;DHT22;2617;51.006;12.436;2023-08-20T06:01:20;22.50;99.90
5196;DHT22;2617;51.006;12.436;2023-08-20T06:06:22;22.60;99.90
5196;DHT22;2617;51.006;12.436;2023-08-20T06:11:25;22.60;99.90
5196;DHT22;2617;51.006;12.436;2023-08-20T06:16:27;22.70;99.90
5196;DHT22;2617;51.006;12.436;2023-08-20T06:21:29;22.50;99.90
5196;DHT22;2617;51.006;12.436;2023-08-20T06:26:33;22.50;99.90
5196;DHT22;2617;51.006;12.436;2023-08-20T06:31:35;22.50;99.90
5196;DHT22;2617;51.006;12.436;2023-08-20T06:36:38;22.70;99.90
5196;DHT22;2617;51.006;12.436;2023-08-20T06:41:40;22.60;99.90
5196;DHT22;2617;51.006;12.436;2023-08-20T06:46:42;22.60;99.90
5196;DHT22;2617;51.006;12.436;2023-08-20T06:51:45;22.70;99.90
5196;DHT22;2617;51.006;12.436;2023-08-20T06:56:47;22.90;99.90
5196;DHT22;2617;51.006;12.436;2023-08-20T07:01:50;22.90;99.90
5196;DHT22;2617;51.006;12.436;2023-08-20T07:06:52;23.10;99.90
5196;DHT22;2617;51.006;12.436;2023-08-20T07:11:55;23.00;99.90
5196;DHT22;2617;51.006;12.436;2023-08-20T07:16:58;23.00;99.90
5196;DHT22;2617;51.006;12.436;2023-08-20T07:22:01;23.50;99.90
5196;DHT22;2617;51.006;12.436;2023-08-20T07:27:04;23.50;99.90
5196;DHT22;2617;51.006;12.436;2023-08-20T07:32:06;23.20;99.90
5196;DHT22;2617;51.006;12.436;2023-08-20T07:37:09;23.10;99.90
5196;DHT22;2617;51.006;12.436;2023-08-20T07:42:11;22.90;99.90
5196;DHT22;2617;51.006;12.436;2023-08-20T07:47:14;22.80;99.90
5196;DHT22;2617;51.006;12.436;2023-08-20T07:52:17;22.80;99.90
5196;DHT22;2617;51.006;12.436;2023-08-20T07:57:19;23.00;99.90
5196;DHT22;2617;51.006;12.436;2023-08-20T08:02:22;23.30;99.90
5196;DHT22;2617;51.006;12.436;2023-08-20T08:07:25;23.20;99.90
5196;DHT22;2617;51.006;12.436;2023-08-20T08:12:29;23.30;99.90
5196;DHT22;2617;51.006;12.436;2023-08-20T08:17:31;23.40;99.90
5196;DHT22;2617;51.006;12.436;2023-08-20T08:22:33;23.40;99.90
5196;DHT22;2617;51.006;12.436;2023-08-20T08:27:37;23.40;99.90
5196;DHT22;2617;51.006;12.436;2023-08-20T08:32:39;23.40;99.90
5196;DHT22;2617;51.006;12.436;2023-08-20T08:37:42;23.20;99.90
5196;DHT22;2617;51.006;12.436;2023-08-20T08:42:46;23.00;99.90
5196;DHT22;2617;51.006;12.436;2023-08-20T08:47:49;23.10;99.90
5196;DHT22;2617;51.006;12.436;2023-08-20T08:52:52;23.30;99.90
5196;DHT22;2617;51.006;12.436;2023-08-20T08:57:54;23.30;99.90
5196;DHT22;2617;51.006;12.436;2023-08-20T09:02:57;23.30;99.90
5196;DHT22;2617;51.006;12.436;2023-08-20T09:07:59;23.60;99.90
5196;DHT22;2617;51.006;12.436;2023-08-20T09:13:02;23.70;99.90
5196;DHT22;2617;51.006;12.436;2023-08-20T09:18:05;24.10;99.90
5196;DHT22;2617;51.006;12.436;2023-08-20T09:23:14;24.30;99.90
5196;DHT22;2617;51.006;12.436;2023-08-20T09:28:17;24.40;99.90
5196;DHT22;2617;51.006;12.436;2023-08-20T09:33:19;24.50;99.90
5196;DHT22;2617;51.006;12.436;2023-08-20T09:38:22;24.80;99.90
5196;DHT22;2617;51.006;12.436;2023-08-20T09:43:24;24.70;99.90
5196;DHT22;2617;51.006;12.436;2023-08-20T09:48:27;24.70;99.90
5196;DHT22;2617;51.006;12.436;2023-08-20T09:53:34;24.80;99.90
5196;DHT22;2617;51.006;12.436;2023-08-20T09:58:37;24.60;99.90
5196;DHT22;2617;51.006;12.436;2023-08-20T10:03:39;24.50;99.90
5196;DHT22;2617;51.006;12.436;2023-08-20T10:08:42;24.70;99.90
5196;DHT22;2617;51.006;12.436;2023-08-20T10:13:44;24.80;99.90
5196;DHT22;2617;51.006;12.436;2023-08-20T10:18:47;25.20;99.90
5196;DHT22;2617;51.006;12.436;2023-08-20T10:23:50;25.90;99.90
5196;DHT22;2617;51.006;12.436;2023-08-20T10:28:55;26.70;99.90
5196;DHT22;2617;51.006;12.436;2023-08-20T10:33:55;26.50;99.90
5196;DHT22;2617;51.006;12.436;2023-08-20T10:38:58;26.50;99.90
5196;DHT22;2617;51.006;12.436;2023-08-20T10:44:02;26.80;99.90
5196;DHT22;2617;51.006;12.436;2023-08-20T10:49:04;26.80;99.90
5196;DHT22;2617;51.006;12.436;2023-08-20T10:54:07;27.00;99.90
5196;DHT22;2617;51.006;12.436;2023-08-20T11:04:31;27.90;99.90
5196;DHT22;2617;51.006;12.436;2023-08-20T11:09:34;27.70;99.90
5196;DHT22;2617;51.006;12.436;2023-08-20T11:14:36;27.10;99.90
5196;DHT22;2617;51.006;12.436;2023-08-20T11:19:39;26.50;99.90
5196;DHT22;2617;51.006;12.436;2023-08-20T11:24:42;26.70;99.90
5196;DHT22;2617;51.006;12.436;2023-08-20T11:29:44;27.30;99.90
5196;DHT22;2617;51.006;12.436;2023-08-20T11:34:46;27.80;99.90
5196;DHT22;2617;51.006;12.436;2023-08-20T11:39:49;27.70;99.90
5196;DHT22;2617;51.006;12.436;2023-08-20T11:44:53;28.20;99.90
5196;DHT22;2617;51.006;12.436;2023-08-20T11:50:03;28.50;99.90
5196;DHT22;2617;51.006;12.436;2023-08-20T11:55:06;28.20;99.90
5196;DHT22;2617;51.006;12.436;2023-08-20T12:00:09;27.90;99.90
5196;DHT22;2617;51.006;12.436;2023-08-20T12:05:12;28.20;99.90
5196;DHT22;2617;51.006;12.436;2023-08-20T12:10:20;28.60;99.90
5196;DHT22;2617;51.006;12.436;2023-08-20T12:15:23;29.20;99.90
5196;DHT22;2617;51.006;12.436;2023-08-20T12:20:27;29.50;99.90
5196;DHT22;2617;51.006;12.436;2023-08-20T12:25:30;29.30;99.90
5196;DHT22;2617;51.006;12.436;2023-08-20T12:30:32;29.40;99.90
5196;DHT22;2617;51.006;12.436;2023-08-20T12:35:37;29.20;99.90
5196;DHT22;2617;51.006;12.436;2023-08-20T12:40:39;29.10;99.90
5196;DHT22;2617;51.006;12.436;2023-08-20T12:45:42;29.60;99.90
5196;DHT22;2617;51.006;12.436;2023-08-20T12:50:44;29.50;99.90
5196;DHT22;2617;51.006;12.436;2023-08-20T12:55:47;28.80;99.90
5196;DHT22;2617;51.006;12.436;2023-08-20T13:00:49;29.20;99.90
5196;DHT22;2617;51.006;12.436;2023-08-20T13:05:52;29.50;99.90
5196;DHT22;2617;51.006;12.436;2023-08-20T13:10:55;29.20;99.90
5196;DHT22;2617;51.006;12.436;2023-08-20T13:15:57;29.20;99.90
5196;DHT22;2617;51.006;12.436;2023-08-20T13:21:01;29.90;99.90
5196;DHT22;2617;51.006;12.436;2023-08-20T13:26:03;29.70;98.90
5196;DHT22;2617;51.006;12.436;2023-08-20T13:31:05;29.90;99.40
5196;DHT22;2617;51.006;12.436;2023-08-20T13:36:08;30.30;98.70
5196;DHT22;2617;51.006;12.436;2023-08-20T13:41:10;30.20;98.70
5196;DHT22;2617;51.006;12.436;2023-08-20T13:46:13;29.80;99.40
5196;DHT22;2617;51.006;12.436;2023-08-20T13:51:15;29.70;99.90
5196;DHT22;2617;51.006;12.436;2023-08-20T13:56:17;29.50;99.90
5196;DHT22;2617;51.006;12.436;2023-08-20T14:01:20;29.90;99.90
5196;DHT22;2617;51.006;12.436;2023-08-20T14:06:22;29.50;99.90
5196;DHT22;2617;51.006;12.436;2023-08-20T14:11:25;29.40;99.90
5196;DHT22;2617;51.006;12.436;2023-08-20T14:16:28;29.90;98.80
5196;DHT22;2617;51.006;12.436;2023-08-20T14:21:30;29.80;98.70
5196;DHT22;2617;51.006;12.436;2023-08-20T14:26:34;29.60;99.40
5196;DHT22;2617;51.006;12.436;2023-08-20T14:31:36;29.50;99.60
5196;DHT22;2617;51.006;12.436;2023-08-20T14:36:38;29.10;99.90
5196;DHT22;2617;51.006;12.436;2023-08-20T14:41:42;29.30;99.90
5196;DHT22;2617;51.006;12.436;2023-08-20T14:46:44;29.20;99.90
5196;DHT22;2617;51.006;12.436;2023-08-20T14:51:46;29.40;99.80
5196;DHT22;2617;51.006;12.436;2023-08-20T14:56:50;29.10;99.90
5196;DHT22;2617;51.006;12.436;2023-08-20T15:01:52;29.10;99.90
5196;DHT22;2617;51.006;12.436;2023-08-20T15:06:55;29.20;99.90
5196;DHT22;2617;51.006;12.436;2023-08-20T15:11:57;29.20;99.90
5196;DHT22;2617;51.006;12.436;2023-08-20T15:16:59;28.70;99.90
5196;DHT22;2617;51.006;12.436;2023-08-20T15:22:02;28.60;99.90
5196;DHT22;2617;51.006;12.436;2023-08-20T15:27:05;28.60;99.90
5196;DHT22;2617;51.006;12.436;2023-08-20T15:32:08;28.60;99.90
5196;DHT22;2617;51.006;12.436;2023-08-20T15:37:10;28.60;99.90
5196;DHT22;2617;51.006;12.436;2023-08-20T15:42:12;28.40;99.90
5196;DHT22;2617;51.006;12.436;2023-08-20T15:47:16;28.50;99.90
5196;DHT22;2617;51.006;12.436;2023-08-20T15:52:18;28.50;99.90
5196;DHT22;2617;51.006;12.436;2023-08-20T15:57:21;28.50;99.90
5196;DHT22;2617;51.006;12.436;2023-08-20T16:02:23;28.50;99.90
5196;DHT22;2617;51.006;12.436;2023-08-20T16:07:25;28.40;99.90
5196;DHT22;2617;51.006;12.436;2023-08-20T16:12:28;28.30;99.90
5196;DHT22;2617;51.006;12.436;2023-08-20T16:17:30;28.20;99.90
5196;DHT22;2617;51.006;12.436;2023-08-20T16:22:33;28.10;99.90
5196;DHT22;2617;51.006;12.436;2023-08-20T16:27:36;28.00;99.90
5196;DHT22;2617;51.006;12.436;2023-08-20T16:32:38;28.00;99.90
5196;DHT22;2617;51.006;12.436;2023-08-20T16:37:41;28.00;99.90
5196;DHT22;2617;51.006;12.436;2023-08-20T16:42:43;28.00;99.90
5196;DHT22;2617;51.006;12.436;2023-08-20T16:47:45;27.80;99.90
5196;DHT22;2617;51.006;12.436;2023-08-20T16:52:48;27.70;99.90
5196;DHT22;2617;51.006;12.436;2023-08-20T16:57:50;27.60;99.90
5196;DHT22;2617;51.006;12.436;2023-08-20T17:02:53;27.50;99.90
5196;DHT22;2617;51.006;12.436;2023-08-20T17:07:55;27.50;99.90
5196;DHT22;2617;51.006;12.436;2023-08-20T17:12:58;27.40;99.90
5196;DHT22;2617;51.006;12.436;2023-08-20T17:18:00;27.40;99.90
5196;DHT22;2617;51.006;12.436;2023-08-20T17:23:03;27.20;99.90
5196;DHT22;2617;51.006;12.436;2023-08-20T17:28:06;27.20;99.90
5196;DHT22;2617;51.006;12.436;2023-08-20T17:33:09;27.00;99.90
5196;DHT22;2617;51.006;12.436;2023-08-20T17:38:13;26.80;99.90
5196;DHT22;2617;51.006;12.436;2023-08-20T17:43:14;26.90;99.90
5196;DHT22;2617;51.006;12.436;2023-08-20T17:48:17;26.70;99.90
5196;DHT22;2617;51.006;12.436;2023-08-20T17:53:23;26.60;99.90
5196;DHT22;2617;51.006;12.436;2023-08-20T17:58:26;26.50;99.90
5196;DHT22;2617;51.006;12.436;2023-08-20T18:03:28;26.40;99.90
5196;DHT22;2617;51.006;12.436;2023-08-20T18:08:31;26.20;99.90
5196;DHT22;2617;51.006;12.436;2023-08-20T18:13:33;26.10;99.90
5196;DHT22;2617;51.006;12.436;2023-08-20T18:18:37;26.00;99.90
5196;DHT22;2617;51.006;12.436;2023-08-20T18:23:39;25.80;99.90
5196;DHT22;2617;51.006;12.436;2023-08-20T18:28:42;25.70;99.90
5196;DHT22;2617;51.006;12.436;2023-08-20T18:33:44;25.50;99.90
5196;DHT22;2617;51.006;12.436;2023-08-20T18:38:47;25.40;99.90
5196;DHT22;2617;51.006;12.436;2023-08-20T18:43:50;25.30;99.90
5196;DHT22;2617;51.006;12.436;2023-08-20T18:48:52;25.20;99.90
5196;DHT22;2617;51.006;12.436;2023-08-20T18:53:55;25.20;99.90
5196;DHT22;2617;51.006;12.436;2023-08-20T18:58:57;25.20;99.90
5196;DHT22;2617;51.006;12.436;2023-08-20T19:03:59;25.00;99.90
5196;DHT22;2617;51.006;12.436;2023-08-20T19:09:02;24.90;99.90
5196;DHT22;2617;51.006;12.436;2023-08-20T19:14:05;24.70;99.90
5196;DHT22;2617;51.006;12.436;2023-08-20T19:19:08;24.60;99.90
5196;DHT22;2617;51.006;12.436;2023-08-20T19:24:10;24.50;99.90
5196;DHT22;2617;51.006;12.436;2023-08-20T19:29:13;24.50;99.90
5196;DHT22;2617;51.006;12.436;2023-08-20T19:34:15;24.50;99.90
5196;DHT22;2617;51.006;12.436;2023-08-20T19:39:17;24.50;99.90
5196;DHT22;2617;51.006;12.436;2023-08-20T19:44:20;24.50;99.90
5196;DHT22;2617;51.006;12.436;2023-08-20T19:49:22;24.50;99.90
5196;DHT22;2617;51.006;12.436;2023-08-20T19:54:25;24.40;99.90
5196;DHT22;2617;51.006;12.436;2023-08-20T19:59:27;24.40;99.90
5196;DHT22;2617;51.006;12.436;2023-08-20T20:04:30;24.40;99.90
5196;DHT22;2617;51.006;12.436;2023-08-20T20:09:32;24.40;99.90
5196;DHT22;2617;51.006;12.436;2023-08-20T20:14:34;24.30;99.90
5196;DHT22;2617;51.006;12.436;2023-08-20T20:19:38;24.20;99.90
5196;DHT22;2617;51.006;12.436;2023-08-20T20:24:41;24.10;99.90
5196;DHT22;2617;51.006;12.436;2023-08-20T20:29:43;24.00;99.90
5196;DHT22;2617;51.006;12.436;2023-08-20T20:34:45;23.90;99.90
5196;DHT22;2617;51.006;12.436;2023-08-20T20:39:49;23.80;99.90
5196;DHT22;2617;51.006;12.436;2023-08-20T20:44:51;23.80;99.90
5196;DHT22;2617;51.006;12.436;2023-08-20T20:49:54;23.70;99.90
5196;DHT22;2617;51.006;12.436;2023-08-20T20:54:56;23.60;99.90
5196;DHT22;2617;51.006;12.436;2023-08-20T20:59:59;23.50;99.90
5196;DHT22;2617;51.006;12.436;2023-08-20T21:05:01;23.40;99.90
5196;DHT22;2617;51.006;12.436;2023-08-20T21:10:04;23.20;99.90
5196;DHT22;2617;51.006;12.436;2023-08-20T21:15:07;23.20;99.90
5196;DHT22;2617;51.006;12.436;2023-08-20T21:20:10;23.10;99.90
5196;DHT22;2617;51.006;12.436;2023-08-20T21:25:13;23.10;99.90
5196;DHT22;2617;51.006;12.436;2023-08-20T21:30:16;22.80;99.90
5196;DHT22;2617;51.006;12.436;2023-08-20T21:35:18;22.80;99.90
5196;DHT22;2617;51.006;12.436;2023-08-20T21:40:21;22.70;99.90
5196;DHT22;2617;51.006;12.436;2023-08-20T21:45:23;22.70;99.90
5196;DHT22;2617;51.006;12.436;2023-08-20T21:50:26;22.60;99.90
5196;DHT22;2617;51.006;12.436;2023-08-20T21:55:28;22.50;99.90
5196;DHT22;2617;51.006;12.436;2023-08-20T22:00:31;22.50;99.90
5196;DHT22;2617;51.006;12.436;2023-08-20T22:05:33;22.40;99.90
5196;DHT22;2617;51.006;12.436;2023-08-20T22:10:36;22.30;99.90
5196;DHT22;2617;51.006;12.436;2023-08-20T22:15:38;22.20;99.90
5196;DHT22;2617;51.006;12.436;2023-08-20T22:20:41;22.00;99.90
5196;DHT22;2617;51.006;12.436;2023-08-20T22:25:44;22.00;99.90
5196;DHT22;2617;51.006;12.436;2023-08-20T22:30:46;22.00;99.90
5196;DHT22;2617;51.006;12.436;2023-08-20T22:35:50;21.90;99.90
5196;DHT22;2617;51.006;12.436;2023-08-20T22:40:52;21.90;99.90
5196;DHT22;2617;51.006;12.436;2023-08-20T22:45:54;21.90;99.90
5196;DHT22;2617;51.006;12.436;2023-08-20T22:50:57;21.80;99.90
5196;DHT22;2617;51.006;12.436;2023-08-20T22:55:59;21.80;99.90
5196;DHT22;2617;51.006;12.436;2023-08-20T23:01:02;21.70;99.90
5196;DHT22;2617;51.006;12.436;2023-08-20T23:06:04;21.60;99.90
5196;DHT22;2617;51.006;12.436;2023-08-20T23:11:07;21.50;99.90
5196;DHT22;2617;51.006;12.436;2023-08-20T23:16:09;21.50;99.90
5196;DHT22;2617;51.006;12.436;2023-08-20T23:21:11;21.40;99.90
5196;DHT22;2617;51.006;12.436;2023-08-20T23:26:14;21.30;99.90
5196;DHT22;2617;51.006;12.436;2023-08-20T23:31:16;21.30;99.90
5196;DHT22;2617;51.006;12.436;2023-08-20T23:36:19;21.10;99.90
5196;DHT22;2617;51.006;12.436;2023-08-20T23:41:23;21.10;99.90
5196;DHT22;2617;51.006;12.436;2023-08-20T23:46:25;21.10;99.90
5196;DHT22;2617;51.006;12.436;2023-08-20T23:51:28;21.10;99.90
5196;DHT22;2617;51.006;12.436;2023-08-20T23:56:31;20.90;99.90
